createdAt,value
2023-03-01T00:00:34.049Z,9.75
2023-03-01T00:03:25.796Z,10.82
2023-03-01T00:06:17.764Z,9.78
2023-03-01T00:09:09.631Z,11.00
2023-03-01T00:12:10.543Z,11.12
2023-03-01T00:15:02.282Z,10.18
2023-03-01T00:17:56.340Z,11.40
2023-03-01T00:20:53.950Z,11.25
2023-03-01T00:26:40.409Z,11.65
2023-03-01T00:29:34.113Z,11.57
2023-03-01T00:32:26.986Z,10.90
2023-03-01T00:35:27.480Z,10.15
2023-03-01T00:38:18.394Z,9.90
2023-03-01T00:41:14.144Z,10.25
2023-03-01T00:44:06.303Z,11.15
2023-03-01T00:46:59.643Z,10.98
2023-03-01T00:49:51.079Z,11.53
2023-03-01T00:52:42.608Z,10.60
2023-03-01T00:55:34.007Z,10.28
2023-03-01T00:58:25.543Z,10.68
2023-03-01T01:01:20.348Z,10.90
2023-03-01T01:06:53.602Z,11.00
2023-03-01T01:09:45.389Z,10.82
2023-03-01T01:12:36.743Z,10.38
2023-03-01T01:15:28.436Z,11.40
2023-03-01T01:18:19.922Z,10.32
2023-03-01T01:21:13.458Z,11.10
2023-03-01T01:24:07.196Z,10.32
2023-03-01T01:26:58.807Z,12.60
2023-03-01T01:29:50.046Z,10.45
2023-03-01T01:32:41.627Z,11.80
2023-03-01T01:35:33.504Z,11.25
2023-03-01T01:41:08.598Z,13.68
2023-03-01T01:44:22.430Z,12.03
2023-03-01T01:47:25.729Z,11.97
2023-03-01T01:50:21.015Z,15.43
2023-03-01T01:53:27.513Z,14.50
2023-03-01T01:56:21.311Z,14.10
2023-03-01T01:59:14.440Z,14.05
2023-03-01T02:02:08.288Z,14.93
2023-03-01T02:05:04.900Z,14.73
2023-03-01T02:07:57.226Z,16.23
2023-03-01T02:10:50.541Z,13.85
2023-03-01T02:13:45.870Z,14.47
2023-03-01T02:16:37.546Z,13.38
2023-03-01T02:22:24.101Z,15.58
2023-03-01T02:25:25.243Z,14.93
2023-03-01T02:28:34.602Z,14.53
2023-03-01T02:31:46.179Z,15.18
2023-03-01T02:34:37.638Z,14.18
2023-03-01T02:37:30.372Z,14.95
2023-03-01T02:40:22.804Z,15.15
2023-03-01T02:43:16.958Z,14.33
2023-03-01T02:46:11.861Z,15.08
2023-03-01T02:49:03.672Z,15.10
2023-03-01T02:52:06.494Z,14.75
2023-03-01T02:55:14.729Z,14.70
2023-03-01T03:01:00.807Z,14.00
2023-03-01T03:03:55.034Z,14.47
2023-03-01T03:06:56.264Z,15.03
2023-03-01T03:09:47.917Z,14.43
2023-03-01T03:12:39.560Z,16.12
2023-03-01T03:18:15.385Z,14.55
2023-03-01T03:21:08.868Z,16.35
2023-03-01T03:24:00.358Z,14.63
2023-03-01T03:26:52.164Z,14.78
2023-03-01T03:29:43.026Z,13.72
2023-03-01T03:32:34.687Z,15.13
2023-03-01T03:35:30.362Z,15.68
2023-03-01T03:38:23.322Z,16.57
2023-03-01T03:41:15.144Z,16.02
2023-03-01T03:44:06.654Z,16.20
2023-03-01T03:46:58.354Z,17.17
2023-03-01T03:49:49.961Z,15.40
2023-03-01T03:52:41.275Z,14.83
2023-03-01T03:55:40.369Z,15.72
2023-03-01T03:58:32.200Z,17.48
2023-03-01T04:01:24.445Z,16.70
2023-03-01T04:04:17.164Z,16.93
2023-03-01T04:09:50.488Z,14.98
2023-03-01T04:12:43.684Z,16.57
2023-03-01T04:15:36.069Z,15.95
2023-03-01T04:18:27.763Z,18.10
2023-03-01T04:21:21.079Z,15.25
2023-03-01T04:24:13.742Z,15.80
2023-03-01T04:27:05.707Z,16.35
2023-03-01T04:30:00.610Z,15.50
2023-03-01T04:32:52.161Z,15.45
2023-03-01T04:35:43.750Z,15.72
2023-03-01T04:38:35.287Z,16.20
2023-03-01T04:41:28.046Z,16.70
2023-03-01T04:44:21.183Z,16.00
2023-03-01T04:47:12.615Z,15.28
2023-03-01T04:50:05.057Z,16.45
2023-03-01T04:56:08.505Z,17.32
2023-03-01T04:59:01.498Z,17.77
2023-03-01T05:01:53.081Z,19.87
2023-03-01T05:04:44.723Z,17.27
2023-03-01T05:07:35.970Z,16.17
2023-03-01T05:10:30.139Z,17.62
2023-03-01T05:13:23.052Z,16.75
2023-03-01T05:16:14.649Z,16.60
2023-03-01T05:19:08.909Z,16.20
2023-03-01T05:22:06.223Z,18.40
2023-03-01T05:24:57.702Z,12.45
2023-03-01T05:27:49.350Z,14.53
2023-03-01T05:30:41.042Z,17.57
2023-03-01T05:33:32.211Z,16.95
2023-03-01T05:36:23.623Z,16.85
2023-03-01T05:39:14.822Z,17.32
2023-03-01T05:42:06.446Z,17.10
2023-03-01T05:44:57.861Z,16.17
2023-03-01T05:47:51.246Z,17.70
2023-03-01T05:50:44.703Z,16.85
2023-03-01T05:53:36.955Z,18.37
2023-03-01T05:56:30.752Z,18.77
2023-03-01T05:59:27.330Z,17.05
2023-03-01T06:02:19.709Z,16.30
2023-03-01T06:05:13.613Z,16.73
2023-03-01T06:08:05.634Z,16.10
2023-03-01T06:10:57.110Z,19.07
2023-03-01T06:13:49.305Z,16.32
2023-03-01T06:16:40.938Z,17.05
2023-03-01T06:19:33.375Z,18.23
2023-03-01T06:22:24.668Z,19.05
2023-03-01T06:25:18.442Z,18.02
2023-03-01T06:28:10.185Z,18.60
2023-03-01T06:31:01.811Z,16.80
2023-03-01T06:33:53.225Z,16.45
2023-03-01T06:36:44.734Z,17.77
2023-03-01T06:39:36.554Z,21.75
2023-03-01T06:42:27.877Z,20.48
2023-03-01T06:45:20.521Z,18.90
2023-03-01T06:48:12.164Z,18.23
2023-03-01T06:51:03.949Z,20.57
2023-03-01T06:54:01.563Z,18.32
2023-03-01T06:56:55.514Z,17.42
2023-03-01T06:59:46.905Z,19.20
2023-03-01T07:02:39.771Z,19.32
2023-03-01T07:05:31.571Z,21.40
2023-03-01T07:08:23.046Z,19.37
2023-03-01T07:11:15.225Z,22.32
2023-03-01T07:14:09.372Z,25.75
2023-03-01T07:17:01.131Z,25.05
2023-03-01T07:19:52.462Z,26.40
2023-03-01T07:22:45.258Z,23.85
2023-03-01T07:25:36.914Z,24.12
2023-03-01T07:28:28.814Z,25.17
2023-03-01T07:31:20.442Z,25.77
2023-03-01T07:34:12.823Z,20.67
2023-03-01T07:37:04.413Z,25.00
2023-03-01T07:39:55.891Z,20.12
2023-03-01T07:42:47.914Z,22.55
2023-03-01T07:45:39.700Z,21.65
2023-03-01T07:48:31.615Z,22.25
2023-03-01T07:51:23.647Z,23.67
2023-03-01T07:54:15.352Z,31.70
2023-03-01T07:57:09.463Z,25.32
2023-03-01T08:00:01.167Z,28.05
2023-03-01T08:02:54.363Z,24.90
2023-03-01T08:05:59.158Z,31.12
2023-03-01T08:08:51.150Z,26.33
2023-03-01T08:11:42.811Z,24.75
2023-03-01T08:14:35.363Z,27.30
2023-03-01T08:17:27.324Z,25.62
2023-03-01T08:20:20.819Z,24.77
2023-03-01T08:23:12.808Z,23.62
2023-03-01T08:26:13.970Z,24.30
2023-03-01T08:29:06.437Z,24.67
2023-03-01T08:31:58.274Z,25.10
2023-03-01T08:34:51.193Z,24.30
2023-03-01T08:37:43.078Z,24.25
2023-03-01T08:40:34.781Z,25.08
2023-03-01T08:43:26.522Z,21.07
2023-03-01T08:46:18.742Z,23.87
2023-03-01T08:49:12.875Z,26.52
2023-03-01T08:52:06.406Z,26.65
2023-03-01T08:54:58.812Z,25.70
2023-03-01T08:57:51.538Z,28.10
2023-03-01T09:00:43.962Z,25.57
2023-03-01T09:03:37.240Z,23.12
2023-03-01T09:06:29.334Z,28.65
2023-03-01T09:09:22.932Z,26.27
2023-03-01T09:12:14.245Z,23.18
2023-03-01T09:15:07.859Z,29.80
2023-03-01T09:18:02.187Z,23.67
2023-03-01T09:20:56.135Z,24.92
2023-03-01T09:23:49.668Z,21.90
2023-03-01T09:26:41.219Z,22.85
2023-03-01T09:32:18.357Z,24.63
2023-03-01T09:35:11.341Z,23.25
2023-03-01T09:38:03.122Z,24.47
2023-03-01T09:40:54.641Z,21.57
2023-03-01T09:43:52.026Z,22.17
2023-03-01T09:46:46.764Z,23.05
2023-03-01T09:49:40.772Z,20.55
2023-03-01T09:52:38.704Z,20.88
2023-03-01T09:55:35.175Z,22.37
2023-03-01T09:58:41.939Z,22.35
2023-03-01T10:01:40.050Z,20.35
2023-03-01T10:04:43.163Z,21.23
2023-03-01T10:07:41.019Z,20.88
2023-03-01T10:10:36.421Z,22.35
2023-03-01T10:13:40.574Z,22.00
2023-03-01T10:16:37.854Z,22.10
2023-03-01T10:19:32.833Z,21.00
2023-03-01T10:22:26.978Z,21.42
2023-03-01T10:25:36.077Z,26.10
2023-03-01T10:28:31.077Z,20.88
2023-03-01T10:31:27.568Z,20.55
2023-03-01T10:34:21.547Z,22.58
2023-03-01T10:37:20.482Z,20.17
2023-03-01T10:40:15.188Z,21.48
2023-03-01T10:43:09.282Z,20.75
2023-03-01T10:46:00.685Z,20.77
2023-03-01T10:49:08.922Z,24.07
2023-03-01T10:52:03.598Z,23.02
2023-03-01T10:54:58.194Z,22.05
2023-03-01T10:57:50.489Z,23.45
2023-03-01T11:00:52.355Z,21.07
2023-03-01T11:03:44.190Z,21.95
2023-03-01T11:06:38.328Z,21.00
2023-03-01T11:09:39.212Z,21.90
2023-03-01T11:12:30.959Z,22.75
2023-03-01T11:15:29.307Z,24.95
2023-03-01T11:21:12.303Z,21.45
2023-03-01T11:24:07.047Z,20.82
2023-03-01T11:27:00.579Z,22.00
2023-03-01T11:29:59.237Z,20.70
2023-03-01T11:32:54.328Z,22.30
2023-03-01T11:35:55.529Z,25.10
2023-03-01T11:38:48.783Z,25.05
2023-03-01T11:41:43.505Z,24.67
2023-03-01T11:44:37.690Z,22.55
2023-03-01T11:47:38.603Z,29.07
2023-03-01T11:50:35.897Z,24.57
2023-03-01T11:53:41.406Z,25.90
2023-03-01T11:56:36.619Z,25.77
2023-03-01T12:00:05.845Z,23.98
2023-03-01T12:03:43.731Z,24.63
2023-03-01T12:06:43.852Z,25.50
2023-03-01T12:09:52.316Z,23.35
2023-03-01T12:15:49.864Z,23.38
2023-03-01T12:18:59.124Z,21.05
2023-03-01T12:21:59.163Z,22.30
2023-03-01T12:25:17.525Z,24.50
2023-03-01T12:28:48.208Z,23.75
2023-03-01T12:32:19.365Z,22.93
2023-03-01T12:35:25.561Z,24.10
2023-03-01T12:38:36.436Z,20.62
2023-03-01T12:41:52.213Z,23.02
2023-03-01T12:47:46.289Z,24.00
2023-03-01T12:50:44.830Z,22.90
2023-03-01T12:53:40.311Z,23.25
2023-03-01T12:59:37.693Z,22.15
2023-03-01T13:02:37.203Z,25.08
2023-03-01T13:05:35.418Z,22.85
2023-03-01T13:08:35.250Z,22.60
2023-03-01T13:11:27.886Z,21.68
2023-03-01T13:14:56.964Z,20.27
2023-03-01T13:17:49.086Z,20.88
2023-03-01T13:20:51.364Z,22.15
2023-03-01T13:23:43.677Z,22.65
2023-03-01T13:26:38.321Z,23.10
2023-03-01T13:29:32.603Z,21.70
2023-03-01T13:32:34.616Z,21.93
2023-03-01T13:35:47.432Z,23.25
2023-03-01T13:38:50.809Z,22.37
2023-03-01T13:41:54.482Z,20.68
2023-03-01T13:44:47.201Z,22.37
2023-03-01T13:47:41.052Z,21.80
2023-03-01T13:50:42.733Z,19.92
2023-03-01T13:53:38.333Z,21.07
2023-03-01T13:56:32.941Z,21.77
2023-03-01T14:02:14.682Z,20.27
2023-03-01T14:05:08.522Z,18.77
2023-03-01T14:08:00.028Z,17.00
2023-03-01T14:11:20.223Z,20.05
2023-03-01T14:14:39.631Z,16.37
2023-03-01T14:18:06.993Z,21.82
2023-03-01T14:20:59.778Z,22.77
2023-03-01T14:27:16.228Z,20.45
2023-03-01T14:30:23.943Z,18.77
2023-03-01T14:33:42.512Z,21.20
2023-03-01T14:36:36.199Z,23.42
2023-03-01T14:39:50.105Z,18.73
2023-03-01T14:42:43.249Z,23.32
2023-03-01T14:45:35.239Z,20.57
2023-03-01T14:48:30.749Z,18.40
2023-03-01T14:51:24.012Z,21.80
2023-03-01T14:54:36.073Z,19.55
2023-03-01T14:57:26.129Z,22.45
2023-03-01T15:00:22.384Z,18.95
2023-03-01T15:03:17.727Z,21.95
2023-03-01T15:06:11.179Z,15.43
2023-03-01T15:09:02.902Z,18.40
2023-03-01T15:11:54.459Z,17.77
2023-03-01T15:15:01.451Z,23.75
2023-03-01T15:17:45.015Z,19.13
2023-03-01T15:20:39.993Z,19.30
2023-03-01T15:23:33.358Z,20.97
2023-03-01T15:26:32.539Z,18.02
2023-03-01T15:29:28.096Z,22.27
2023-03-01T15:32:31.544Z,18.62
2023-03-01T15:35:44.018Z,21.97
2023-03-01T15:38:41.782Z,22.98
2023-03-01T15:44:41.649Z,25.12
2023-03-01T15:50:22.190Z,20.57
2023-03-01T15:53:17.346Z,20.17
2023-03-01T15:56:11.025Z,18.55
2023-03-01T15:59:04.664Z,21.27
2023-03-01T16:01:56.582Z,16.97
2023-03-01T16:04:48.113Z,19.35
2023-03-01T16:07:53.811Z,18.62
2023-03-01T16:10:52.682Z,19.15
2023-03-01T16:13:44.454Z,18.92
2023-03-01T16:16:36.784Z,21.12
2023-03-01T16:19:28.165Z,22.35
2023-03-01T16:22:21.475Z,22.60
2023-03-01T16:25:14.588Z,19.90
2023-03-01T16:28:08.670Z,21.17
2023-03-01T16:31:02.859Z,19.40
2023-03-01T16:33:57.242Z,15.72
2023-03-01T16:36:51.583Z,18.50
2023-03-01T16:39:43.256Z,19.60
2023-03-01T16:42:40.515Z,17.35
2023-03-01T16:45:33.926Z,22.75
2023-03-01T16:51:10.280Z,18.52
2023-03-01T16:54:01.909Z,16.65
2023-03-01T16:56:53.128Z,23.30
2023-03-01T16:59:44.812Z,21.20
2023-03-01T17:02:36.892Z,16.32
2023-03-01T17:05:28.115Z,18.65
2023-03-01T17:08:24.789Z,22.13
2023-03-01T17:11:18.054Z,22.22
2023-03-01T17:14:10.699Z,22.82
2023-03-01T17:19:54.667Z,18.50
2023-03-01T17:22:49.139Z,19.55
2023-03-01T17:25:45.750Z,20.52
2023-03-01T17:28:39.008Z,23.07
2023-03-01T17:31:30.675Z,19.95
2023-03-01T17:34:22.341Z,19.75
2023-03-01T17:37:14.225Z,20.80
2023-03-01T17:40:06.756Z,21.27
2023-03-01T17:42:58.696Z,21.57
2023-03-01T17:45:51.817Z,23.00
2023-03-01T17:51:23.736Z,21.52
2023-03-01T17:54:15.330Z,21.95
2023-03-01T17:57:21.993Z,22.87
2023-03-01T18:00:16.444Z,19.40
2023-03-01T18:03:08.284Z,23.32
2023-03-01T18:05:59.641Z,18.50
2023-03-01T18:08:55.862Z,19.27
2023-03-01T18:11:47.995Z,21.52
2023-03-01T18:14:40.412Z,14.70
2023-03-01T18:17:32.020Z,19.35
2023-03-01T18:20:24.065Z,17.65
2023-03-01T18:23:16.113Z,21.73
2023-03-01T18:26:09.427Z,19.32
2023-03-01T18:29:02.664Z,24.82
2023-03-01T18:31:54.076Z,23.57
2023-03-01T18:34:45.696Z,22.40
2023-03-01T18:37:37.704Z,22.87
2023-03-01T18:40:30.068Z,17.05
2023-03-01T18:43:22.310Z,18.20
2023-03-01T18:46:13.548Z,23.55
2023-03-01T18:49:05.332Z,27.42
2023-03-01T18:54:38.144Z,22.82
2023-03-01T18:57:30.064Z,18.50
2023-03-01T19:00:24.608Z,18.55
2023-03-01T19:03:16.151Z,22.82
2023-03-01T19:06:08.355Z,24.40
2023-03-01T19:09:01.238Z,20.97
2023-03-01T19:11:53.042Z,24.15
2023-03-01T19:14:44.720Z,26.82
2023-03-01T19:17:36.449Z,22.32
2023-03-01T19:20:31.735Z,24.20
2023-03-01T19:23:23.775Z,22.73
2023-03-01T19:26:17.501Z,24.92
2023-03-01T19:31:48.571Z,25.70
2023-03-01T19:34:41.506Z,23.00
2023-03-01T19:37:34.093Z,22.95
2023-03-01T19:40:25.398Z,24.65
2023-03-01T19:43:16.796Z,28.07
2023-03-01T19:46:08.546Z,26.05
2023-03-01T19:49:01.539Z,23.02
2023-03-01T19:51:53.091Z,21.40
2023-03-01T19:54:44.861Z,22.65
2023-03-01T19:57:38.806Z,26.60
2023-03-01T20:00:40.841Z,24.30
2023-03-01T20:03:34.978Z,24.02
2023-03-01T20:06:26.421Z,22.93
2023-03-01T20:09:21.805Z,21.37
2023-03-01T20:12:13.425Z,25.60
2023-03-01T20:15:05.921Z,22.98
2023-03-01T20:17:57.486Z,22.00
2023-03-01T20:20:52.818Z,21.20
2023-03-01T20:23:44.467Z,21.37
2023-03-01T20:26:36.825Z,23.65
2023-03-01T20:29:28.041Z,24.07
2023-03-01T20:32:19.545Z,23.22
2023-03-01T20:35:12.986Z,21.73
2023-03-01T20:38:04.663Z,26.23
2023-03-01T20:41:01.607Z,25.37
2023-03-01T20:43:56.562Z,23.62
2023-03-01T20:46:48.173Z,24.75
2023-03-01T20:49:39.893Z,22.87
2023-03-01T20:52:42.229Z,23.25
2023-03-01T20:55:27.167Z,26.30
2023-03-01T20:58:18.262Z,22.35
2023-03-01T21:01:11.046Z,24.82
2023-03-01T21:04:02.805Z,25.48
2023-03-01T21:06:54.262Z,25.48
2023-03-01T21:09:45.953Z,26.02
2023-03-01T21:12:37.380Z,23.73
2023-03-01T21:15:29.794Z,20.97
2023-03-01T21:18:21.170Z,27.15
2023-03-01T21:21:14.822Z,28.52
2023-03-01T21:24:09.213Z,28.45
2023-03-01T21:27:02.502Z,29.67
2023-03-01T21:30:01.083Z,32.75
2023-03-01T21:32:54.200Z,28.35
2023-03-01T21:35:45.962Z,28.00
2023-03-01T21:38:39.133Z,25.77
2023-03-01T21:41:32.476Z,27.35
2023-03-01T21:44:24.429Z,25.80
2023-03-01T21:47:16.127Z,24.70
2023-03-01T21:50:09.721Z,26.12
2023-03-01T21:53:02.898Z,24.65
2023-03-01T21:55:54.148Z,25.80
2023-03-01T21:58:45.338Z,24.63
2023-03-01T22:01:38.033Z,26.80
2023-03-01T22:04:29.233Z,26.90
2023-03-01T22:07:20.671Z,24.80
2023-03-01T22:10:14.192Z,25.23
2023-03-01T22:13:05.529Z,23.27
2023-03-01T22:15:57.216Z,26.48
2023-03-01T22:18:49.218Z,25.35
2023-03-01T22:21:43.487Z,27.02
2023-03-01T22:27:30.605Z,27.82
2023-03-01T22:30:22.216Z,29.37
2023-03-01T22:33:13.440Z,28.05
2023-03-01T22:36:05.429Z,28.12
2023-03-01T22:39:00.245Z,27.58
2023-03-01T22:41:52.390Z,27.13
2023-03-01T22:44:53.945Z,27.75
2023-03-01T22:47:45.927Z,30.05
2023-03-01T22:50:37.918Z,26.80
2023-03-01T22:53:29.423Z,27.50
2023-03-01T22:56:22.960Z,27.40
2023-03-01T22:59:16.805Z,27.42
2023-03-01T23:02:08.643Z,29.15
2023-03-01T23:05:00.322Z,26.57
2023-03-01T23:07:52.060Z,27.40
2023-03-01T23:10:44.268Z,28.75
2023-03-01T23:13:35.438Z,26.12
2023-03-01T23:16:27.345Z,27.22
2023-03-01T23:19:18.976Z,29.20
2023-03-01T23:22:10.365Z,27.32
2023-03-01T23:25:02.704Z,27.87
2023-03-01T23:27:54.492Z,28.47
2023-03-01T23:30:47.444Z,27.27
2023-03-01T23:33:39.942Z,25.80
2023-03-01T23:36:34.023Z,26.48
2023-03-01T23:39:25.411Z,26.95
2023-03-01T23:42:16.520Z,29.92
2023-03-01T23:45:10.066Z,27.20
2023-03-01T23:48:01.272Z,27.10
2023-03-01T23:50:58.870Z,25.97
2023-03-01T23:53:57.863Z,26.45
2023-03-01T23:56:48.940Z,26.80
2023-03-01T23:59:41.146Z,28.25
